»·PEaware :: N122FR KSNA-KONT

N122FR :: KSNA-KONT

FLIGHT INFORMATION

Flight Status: Arrived
Operator: Privately registered:
United States
More flights under this callsign
Pilot: Florentin B. (13371)
Aircraft: BEECH AIRCRAFT DEBONAIR BONANZA
(BE33)
More flights by this aircraft type
Origin: KSNA John Wayne-Orange Co
United States
Destination: KONT Ontario Intl
United States
More flights between these airports :: More routes between these airports
Route: +SLI V8 PDZ
File this flight plan on PilotEdge
Remarks:
Altitude:
(Current/Filed)
5,000ft
Speed:
(Current/Filed)
150kts
Departed: 10-Jan-17 02:22 PM
Arrived: 10-Jan-17 02:54 PM
Distance/Time
Traveled:
26nm/0:32
Distance/Time
To Go:
Arrived

Flight Plot

Page will automatically refresh every two minutes.


Map Options




Map Legend


Flown Route
Filed Route
Departure Airport
Arrival Airport
Navaid (VOR, NDB)
Fix

Horizontal Profiles

Position Reports

Time Latitude Longitude Heading Altitude Ground
Speed
10-Jan-17 13:59 33.676164 -117.871726 126 58ft 0kts
10-Jan-17 14:00 33.676164 -117.871725 126 58ft 0kts
10-Jan-17 14:01 33.676163 -117.871725 126 58ft 0kts
10-Jan-17 14:02 33.676163 -117.871725 126 58ft 0kts
10-Jan-17 14:03 33.676163 -117.871724 126 58ft 0kts
10-Jan-17 14:04 33.676163 -117.871724 126 58ft 0kts
10-Jan-17 14:05 33.676162 -117.871724 126 58ft 0kts
10-Jan-17 14:06 33.676162 -117.871723 127 58ft 0kts
10-Jan-17 14:07 33.676162 -117.871723 127 58ft 0kts
10-Jan-17 14:08 33.676162 -117.871722 127 58ft 0kts
10-Jan-17 14:09 33.676162 -117.871722 127 58ft 0kts
10-Jan-17 14:10 33.676161 -117.871722 127 58ft 0kts
10-Jan-17 14:11 33.676161 -117.871721 127 58ft 0kts
10-Jan-17 14:12 33.676161 -117.871721 127 58ft 0kts
10-Jan-17 14:13 33.676161 -117.871721 127 58ft 0kts
10-Jan-17 14:14 33.676160 -117.871720 127 58ft 0kts
10-Jan-17 14:15 33.676160 -117.871720 127 58ft 0kts
10-Jan-17 14:16 33.676663 -117.869835 27 58ft 22kts
10-Jan-17 14:17 33.680854 -117.866496 111 58ft 0kts
10-Jan-17 14:18 33.680854 -117.866496 111 58ft 0kts
10-Jan-17 14:19 33.680853 -117.866495 111 58ft 0kts
10-Jan-17 14:20 33.680853 -117.866495 111 58ft 0kts
10-Jan-17 14:21 33.680853 -117.866494 111 58ft 0kts
10-Jan-17 14:22 33.678769 -117.866890 208 58ft 48kts
10-Jan-17 14:23 33.658851 -117.886638 227 999ft 118kts
10-Jan-17 14:24 33.633370 -117.918737 227 1852ft 138kts
10-Jan-17 14:25 33.607136 -117.951958 226 2651ft 136kts
10-Jan-17 14:26 33.590123 -117.987668 304 3441ft 132kts
10-Jan-17 14:27 33.625731 -117.992959 356 4257ft 130kts
10-Jan-17 14:28 33.662672 -117.991959 356 4962ft 139kts
10-Jan-17 14:29 33.705841 -117.990727 356 4991ft 163kts
10-Jan-17 14:30 33.751987 -117.989990 356 4992ft 166kts
10-Jan-17 14:31 33.798413 -117.988591 10 4985ft 170kts
10-Jan-17 14:32 33.816403 -117.937111 79 4990ft 178kts
10-Jan-17 14:33 33.829493 -117.879887 76 4983ft 175kts
10-Jan-17 14:34 33.847561 -117.826825 62 4983ft 171kts
10-Jan-17 14:35 33.867863 -117.775109 63 4986ft 170kts
10-Jan-17 14:36 33.885235 -117.722079 71 4990ft 171kts
10-Jan-17 14:37 33.900156 -117.667795 70 4989ft 170kts
10-Jan-17 14:38 33.915122 -117.613749 70 4989ft 170kts
10-Jan-17 14:39 33.928082 -117.559157 86 5019ft 169kts
10-Jan-17 14:40 33.937993 -117.505908 55 5016ft 165kts
10-Jan-17 14:41 33.962690 -117.459738 54 5009ft 162kts
10-Jan-17 14:42 33.987204 -117.414232 54 5007ft 161kts
10-Jan-17 14:43 34.010919 -117.368615 62 5014ft 160kts
10-Jan-17 14:44 34.031906 -117.322049 62 5010ft 156kts
10-Jan-17 14:45 34.052512 -117.276319 62 5013ft 155kts
10-Jan-17 14:46 34.079593 -117.274774 259 5024ft 138kts
10-Jan-17 14:47 34.063373 -117.317146 242 4949ft 144kts
10-Jan-17 14:48 34.055187 -117.365632 270 4465ft 152kts
10-Jan-17 14:49 34.055317 -117.416115 266 3759ft 155kts
10-Jan-17 14:50 34.054878 -117.468134 268 2796ft 143kts
10-Jan-17 14:51 34.055083 -117.512656 267 2095ft 128kts
10-Jan-17 14:52 34.055085 -117.554949 266 1444ft 107kts
10-Jan-17 14:53 34.055115 -117.583776 261 987ft 79kts
10-Jan-17 14:54 34.054167 -117.594505 232 946ft 0kts
10-Jan-17 14:55 34.054038 -117.594719 241 946ft 7kts
10-Jan-17 14:56 34.053893 -117.603102 268 946ft 32kts
10-Jan-17 14:57 34.053312 -117.609516 159 946ft 5kts
10-Jan-17 14:58 34.053131 -117.607893 92 946ft 0kts
10-Jan-17 14:59 34.053131 -117.607893 92 946ft 0kts

Navigation Log

Ident Type
1. KSNA Airport
2. SLI Navaid
3. AHEIM Fix
4. OLLIE Fix
5. POXKU Fix
6. EBITE Fix
7. PDZ Navaid
8. KONT Airport